createdAt,value
2023-02-13T00:00:58.147Z,9.02
2023-02-13T00:03:27.769Z,8.85
2023-02-13T00:05:55.717Z,8.82
2023-02-13T00:08:23.905Z,8.79
2023-02-13T00:10:51.730Z,8.78
2023-02-13T00:13:19.527Z,8.72
2023-02-13T00:15:47.553Z,8.90
2023-02-13T00:18:15.378Z,8.92
2023-02-13T00:20:44.803Z,8.86
2023-02-13T00:23:12.836Z,8.77
2023-02-13T00:25:40.731Z,8.83
2023-02-13T00:28:08.672Z,8.83
2023-02-13T00:30:36.637Z,8.87
2023-02-13T00:33:04.676Z,8.81
2023-02-13T00:35:32.906Z,8.66
2023-02-13T00:38:02.252Z,8.72
2023-02-13T00:40:30.206Z,8.73
2023-02-13T00:42:58.161Z,8.68
2023-02-13T00:45:26.123Z,8.69
2023-02-13T00:47:54.148Z,8.71
2023-02-13T00:50:22.018Z,8.62
2023-02-13T00:52:50.001Z,8.71
2023-02-13T00:55:19.318Z,8.72
2023-02-13T00:57:47.176Z,8.73
2023-02-13T01:00:16.588Z,8.79
2023-02-13T01:02:44.412Z,8.81
2023-02-13T01:05:12.611Z,8.94
2023-02-13T01:07:40.588Z,8.87
2023-02-13T01:10:08.916Z,8.78
2023-02-13T01:12:38.645Z,8.73
2023-02-13T01:15:08.887Z,8.74
2023-02-13T01:17:39.708Z,8.85
2023-02-13T01:20:08.421Z,8.93
2023-02-13T01:22:36.794Z,8.85
2023-02-13T01:25:04.725Z,9.08
2023-02-13T01:27:33.030Z,8.87
2023-02-13T01:30:02.602Z,8.84
2023-02-13T01:32:30.766Z,8.67
2023-02-13T01:34:58.632Z,8.57
2023-02-13T01:37:26.618Z,8.60
2023-02-13T01:39:56.376Z,8.59
2023-02-13T01:42:28.237Z,8.47
2023-02-13T01:44:57.780Z,8.46
2023-02-13T01:47:30.701Z,8.50
2023-02-13T01:50:08.474Z,8.56
2023-02-13T01:52:39.377Z,8.70
2023-02-13T01:55:08.570Z,8.65
2023-02-13T01:57:38.824Z,8.61
2023-02-13T02:00:10.474Z,8.69
2023-02-13T02:02:53.402Z,8.69
2023-02-13T02:05:28.467Z,8.61
2023-02-13T02:07:58.451Z,8.62
2023-02-13T02:10:26.824Z,8.55
2023-02-13T02:13:00.353Z,8.82
2023-02-13T02:15:29.971Z,8.82
2023-02-13T02:18:00.398Z,8.51
2023-02-13T02:20:48.082Z,8.74
2023-02-13T02:23:45.051Z,8.74
2023-02-13T02:26:31.667Z,8.56
2023-02-13T02:29:22.492Z,8.48
2023-02-13T02:32:29.782Z,8.49
2023-02-13T02:35:10.774Z,8.46
2023-02-13T02:37:51.014Z,8.40
2023-02-13T02:40:26.871Z,8.51
2023-02-13T02:43:14.623Z,8.43
2023-02-13T02:45:49.844Z,8.38
2023-02-13T02:48:44.765Z,8.52
2023-02-13T02:51:23.356Z,8.55
2023-02-13T02:54:24.804Z,8.35
2023-02-13T02:56:55.561Z,8.40
2023-02-13T02:59:46.928Z,8.38
2023-02-13T03:02:34.737Z,8.37
2023-02-13T03:05:21.498Z,8.37
2023-02-13T03:07:50.859Z,8.33
2023-02-13T03:10:46.259Z,8.23
2023-02-13T03:13:24.536Z,8.22
2023-02-13T03:16:20.764Z,8.32
2023-02-13T03:19:11.220Z,8.35
2023-02-13T03:22:06.195Z,8.36
2023-02-13T03:24:44.914Z,8.21
2023-02-13T03:27:40.270Z,8.50
2023-02-13T03:30:19.405Z,8.28
2023-02-13T03:32:59.816Z,8.24
2023-02-13T03:35:56.076Z,8.40
2023-02-13T03:38:28.758Z,8.34
2023-02-13T03:41:21.547Z,8.31
2023-02-13T03:44:01.844Z,8.39
2023-02-13T03:46:37.392Z,8.25
2023-02-13T03:49:31.184Z,8.06
2023-02-13T03:52:03.354Z,8.11
2023-02-13T03:54:56.581Z,8.12
2023-02-13T03:57:45.842Z,8.09
2023-02-13T04:00:17.032Z,8.02
2023-02-13T04:02:56.085Z,8.11
2023-02-13T04:05:27.650Z,8.09
2023-02-13T04:07:55.607Z,8.13
2023-02-13T04:10:28.360Z,8.13
2023-02-13T04:13:04.888Z,8.07
2023-02-13T04:15:37.770Z,8.05
2023-02-13T04:18:11.110Z,7.99
2023-02-13T04:20:40.635Z,8.04
2023-02-13T04:23:10.465Z,8.00
2023-02-13T04:25:40.689Z,8.12
2023-02-13T04:28:11.066Z,8.21
2023-02-13T04:30:39.331Z,8.07
2023-02-13T04:33:07.133Z,8.24
2023-02-13T04:35:35.362Z,8.19
2023-02-13T04:38:03.997Z,8.19
2023-02-13T04:40:31.911Z,8.03
2023-02-13T04:42:59.883Z,8.05
2023-02-13T04:45:29.146Z,8.11
2023-02-13T04:47:58.677Z,8.26
2023-02-13T04:50:27.294Z,8.25
2023-02-13T04:52:56.506Z,8.17
2023-02-13T04:55:24.854Z,8.16
2023-02-13T04:57:53.884Z,8.22
2023-02-13T05:00:23.084Z,8.10
2023-02-13T05:02:52.834Z,8.05
2023-02-13T05:05:21.145Z,8.15
2023-02-13T05:07:49.104Z,8.19
2023-02-13T05:10:16.959Z,8.20
2023-02-13T05:12:44.884Z,8.11
2023-02-13T05:15:12.884Z,8.22
2023-02-13T05:17:40.918Z,8.13
2023-02-13T05:20:11.243Z,8.13
2023-02-13T05:22:56.525Z,8.10
2023-02-13T05:25:24.500Z,8.12
2023-02-13T05:27:52.399Z,8.13
2023-02-13T05:30:19.583Z,8.04
2023-02-13T05:32:47.345Z,8.26
2023-02-13T05:35:16.820Z,8.19
2023-02-13T05:37:45.096Z,8.08
2023-02-13T05:40:15.164Z,8.05
2023-02-13T05:42:43.923Z,8.09
2023-02-13T05:45:11.998Z,7.95
2023-02-13T05:47:39.896Z,7.88
2023-02-13T05:50:09.265Z,7.82
2023-02-13T05:52:38.686Z,7.78
2023-02-13T05:55:07.234Z,7.69
2023-02-13T05:57:35.103Z,7.72
2023-02-13T06:00:03.357Z,7.66
2023-02-13T06:02:33.529Z,7.78
2023-02-13T06:05:01.347Z,7.55
2023-02-13T06:07:29.134Z,7.54
2023-02-13T06:09:59.698Z,7.55
2023-02-13T06:12:27.531Z,7.54
2023-02-13T06:14:55.347Z,7.46
2023-02-13T06:17:23.145Z,7.42
2023-02-13T06:19:51.080Z,7.38
2023-02-13T06:22:18.981Z,7.35
2023-02-13T06:24:46.895Z,7.29
2023-02-13T06:27:16.302Z,7.27
2023-02-13T06:29:44.235Z,7.36
2023-02-13T06:32:12.190Z,7.27
2023-02-13T06:34:39.990Z,7.27
2023-02-13T06:37:07.948Z,7.01
2023-02-13T06:39:35.913Z,7.06
2023-02-13T06:42:03.818Z,7.06
2023-02-13T06:44:33.060Z,7.08
2023-02-13T06:47:00.886Z,7.00
2023-02-13T06:49:28.845Z,6.92
2023-02-13T06:51:56.715Z,7.01
2023-02-13T06:54:37.163Z,6.78
2023-02-13T06:57:12.638Z,6.74
2023-02-13T06:59:41.996Z,6.65
2023-02-13T07:02:10.886Z,6.67
2023-02-13T07:04:38.721Z,6.60
2023-02-13T07:07:07.133Z,6.52
2023-02-13T07:09:35.029Z,6.59
2023-02-13T07:12:04.694Z,6.54
2023-02-13T07:14:32.569Z,6.47
2023-02-13T07:17:01.975Z,6.54
2023-02-13T07:19:29.886Z,6.51
2023-02-13T07:21:57.775Z,6.54
2023-02-13T07:24:25.861Z,6.52
2023-02-13T07:26:53.726Z,6.52
2023-02-13T07:29:21.613Z,6.54
2023-02-13T07:31:49.565Z,6.51
2023-02-13T07:34:18.938Z,6.48
2023-02-13T07:36:46.882Z,6.54
2023-02-13T07:39:15.285Z,6.59
2023-02-13T07:41:43.281Z,6.66
2023-02-13T07:44:11.670Z,6.72
2023-02-13T07:46:40.225Z,6.80
2023-02-13T07:49:08.127Z,7.25
2023-02-13T07:51:37.535Z,7.18
2023-02-13T07:54:05.428Z,7.51
2023-02-13T07:56:33.406Z,7.56
2023-02-13T07:59:01.241Z,7.77
2023-02-13T08:01:29.221Z,7.88
2023-02-13T08:03:57.279Z,8.11
2023-02-13T08:06:25.449Z,9.14
2023-02-13T08:09:14.724Z,9.58
2023-02-13T08:24:14.620Z,10.20
2023-02-13T08:26:43.503Z,9.73
2023-02-13T08:29:11.562Z,10.35
2023-02-13T08:31:39.644Z,10.87
2023-02-13T08:34:07.575Z,11.17
2023-02-13T08:36:35.542Z,11.75
2023-02-13T08:39:03.459Z,11.36
2023-02-13T08:41:32.939Z,12.04
2023-02-13T08:44:03.571Z,12.41
2023-02-13T08:46:31.486Z,12.29
2023-02-13T08:48:59.357Z,11.57
2023-02-13T08:51:27.388Z,11.85
2023-02-13T08:53:55.342Z,12.05
2023-02-13T08:56:23.248Z,11.65
2023-02-13T08:58:52.897Z,11.77
2023-02-13T09:01:20.857Z,11.75
2023-02-13T09:03:48.878Z,11.63
2023-02-13T09:06:16.871Z,11.56
2023-02-13T09:08:44.740Z,11.54
2023-02-13T09:11:12.581Z,11.14
2023-02-13T09:13:40.851Z,11.03
2023-02-13T09:16:11.837Z,11.29
2023-02-13T09:18:39.923Z,11.17
2023-02-13T09:21:10.086Z,11.31
2023-02-13T09:23:40.818Z,11.07
2023-02-13T09:26:11.137Z,11.19
2023-02-13T09:28:40.415Z,11.47
2023-02-13T09:31:11.362Z,11.73
2023-02-13T09:33:39.967Z,11.91
2023-02-13T09:36:09.210Z,12.16
2023-02-13T09:38:37.167Z,12.52
2023-02-13T09:41:09.429Z,12.31
2023-02-13T09:43:42.511Z,12.62
2023-02-13T09:46:16.719Z,12.12
2023-02-13T09:48:48.513Z,12.52
2023-02-13T09:51:19.315Z,12.51
2023-02-13T09:53:54.472Z,12.41
2023-02-13T09:56:34.544Z,12.64
2023-02-13T09:59:07.623Z,12.99
2023-02-13T10:01:42.396Z,13.44
2023-02-13T10:04:30.794Z,13.29
2023-02-13T10:07:13.369Z,13.37
2023-02-13T10:09:49.624Z,13.17
2023-02-13T10:12:36.590Z,12.97
2023-02-13T10:15:16.960Z,12.83
2023-02-13T10:17:51.602Z,12.22
2023-02-13T10:20:29.459Z,12.55
2023-02-13T10:23:04.278Z,12.80
2023-02-13T10:25:44.613Z,13.01
2023-02-13T10:28:16.673Z,12.85
2023-02-13T10:30:51.974Z,12.59
2023-02-13T10:33:27.210Z,12.77
2023-02-13T10:36:07.641Z,12.62
2023-02-13T10:38:39.580Z,12.62
2023-02-13T10:41:24.496Z,12.60
2023-02-13T10:44:08.542Z,12.26
2023-02-13T10:46:42.603Z,12.34
2023-02-13T10:49:29.990Z,12.58
2023-02-13T10:52:12.632Z,12.72
2023-02-13T10:55:03.248Z,12.72
2023-02-13T10:57:42.197Z,12.74
2023-02-13T11:00:18.776Z,12.69
2023-02-13T11:02:46.757Z,12.83
2023-02-13T11:05:19.071Z,12.81
2023-02-13T11:07:48.664Z,13.15
2023-02-13T11:10:19.092Z,12.53
2023-02-13T11:12:47.974Z,12.66
2023-02-13T11:15:26.053Z,12.64
2023-02-13T11:17:56.542Z,12.71
2023-02-13T11:20:34.252Z,12.89
2023-02-13T11:23:35.021Z,13.04
2023-02-13T11:26:07.747Z,13.12
2023-02-13T11:28:39.935Z,13.21
2023-02-13T11:31:21.156Z,13.27
2023-02-13T11:33:50.258Z,13.34
2023-02-13T11:36:26.555Z,13.35
2023-02-13T11:39:03.375Z,13.33
2023-02-13T11:41:40.738Z,13.50
2023-02-13T11:44:23.314Z,13.78
2023-02-13T11:46:53.856Z,13.69
2023-02-13T11:49:24.352Z,13.61
2023-02-13T11:51:56.735Z,13.90
2023-02-13T11:54:33.681Z,14.00
2023-02-13T11:57:06.128Z,13.97
2023-02-13T11:59:41.547Z,13.74
2023-02-13T12:02:18.904Z,13.97
2023-02-13T12:04:48.158Z,13.97
2023-02-13T12:07:21.299Z,13.96
2023-02-13T12:09:54.434Z,13.98
2023-02-13T12:12:30.013Z,13.98
2023-02-13T12:14:59.386Z,13.94
2023-02-13T12:17:32.583Z,14.07
2023-02-13T12:20:01.551Z,14.01
2023-02-13T12:22:45.961Z,14.20
2023-02-13T12:25:32.785Z,14.08
2023-02-13T12:28:13.736Z,14.24
2023-02-13T12:30:59.413Z,14.24
2023-02-13T12:34:01.691Z,14.34
2023-02-13T12:36:36.838Z,14.22
2023-02-13T12:39:19.036Z,14.71
2023-02-13T12:42:01.279Z,14.48
2023-02-13T12:44:50.438Z,14.48
2023-02-13T12:47:21.375Z,14.28
2023-02-13T12:50:14.862Z,14.54
2023-02-13T12:52:51.681Z,14.90
2023-02-13T12:55:32.832Z,14.67
2023-02-13T12:58:19.649Z,14.94
2023-02-13T13:01:00.793Z,14.96
2023-02-13T13:03:36.869Z,14.80
2023-02-13T13:06:14.605Z,14.78
2023-02-13T13:09:07.738Z,15.02
2023-02-13T13:11:51.565Z,15.04
2023-02-13T13:14:27.795Z,15.29
2023-02-13T13:17:04.693Z,15.02
2023-02-13T13:19:40.408Z,14.99
2023-02-13T13:22:14.297Z,15.01
2023-02-13T13:24:53.945Z,14.95
2023-02-13T13:27:26.458Z,14.90
2023-02-13T13:30:01.165Z,14.95
2023-02-13T13:32:31.450Z,14.83
2023-02-13T13:35:00.247Z,14.63
2023-02-13T13:37:34.441Z,14.55
2023-02-13T13:40:16.096Z,14.55
2023-02-13T13:42:53.284Z,14.76
2023-02-13T13:45:38.636Z,14.60
2023-02-13T13:48:41.511Z,14.56
2023-02-13T13:51:13.841Z,14.54
2023-02-13T13:54:30.386Z,14.65
2023-02-13T13:57:12.424Z,14.42
2023-02-13T14:00:01.864Z,14.28
2023-02-13T14:02:41.756Z,14.25
2023-02-13T14:05:26.350Z,14.43
2023-02-13T14:07:56.992Z,14.31
2023-02-13T14:11:03.449Z,14.31
2023-02-13T14:13:35.031Z,14.17
2023-02-13T14:16:04.098Z,14.15
2023-02-13T14:18:32.942Z,14.19
2023-02-13T14:21:02.517Z,14.18
2023-02-13T14:23:38.578Z,14.17
2023-02-13T14:26:37.116Z,14.23
2023-02-13T14:29:26.065Z,14.12
2023-02-13T14:32:16.442Z,14.14
2023-02-13T14:35:00.867Z,14.11
2023-02-13T14:37:36.842Z,14.17
2023-02-13T14:40:15.290Z,14.05
2023-02-13T14:42:46.103Z,14.17
2023-02-13T14:45:19.807Z,14.17
2023-02-13T14:47:53.451Z,14.17
2023-02-13T14:50:26.414Z,14.25
2023-02-13T14:52:56.047Z,14.19
2023-02-13T14:55:34.863Z,14.33
2023-02-13T14:58:08.128Z,14.46
2023-02-13T15:00:44.478Z,14.24
2023-02-13T15:03:24.959Z,14.18
2023-02-13T15:05:55.298Z,14.13
2023-02-13T15:08:25.668Z,14.14
2023-02-13T15:10:55.606Z,14.12
2023-02-13T15:13:26.984Z,14.18
2023-02-13T15:16:02.132Z,14.16
2023-02-13T15:18:34.863Z,14.22
2023-02-13T15:21:03.704Z,14.33
2023-02-13T15:23:34.961Z,14.14
2023-02-13T15:26:05.145Z,14.31
2023-02-13T15:28:34.050Z,14.10
2023-02-13T15:31:06.159Z,14.18
2023-02-13T15:33:38.381Z,14.18
2023-02-13T15:36:07.742Z,14.04
2023-02-13T15:38:38.000Z,13.89
2023-02-13T15:41:09.026Z,13.99
2023-02-13T15:43:39.339Z,14.09
2023-02-13T15:46:20.879Z,13.87
2023-02-13T15:48:49.900Z,13.82
2023-02-13T15:51:20.781Z,13.74
2023-02-13T15:53:52.740Z,13.70
2023-02-13T15:56:20.893Z,13.60
2023-02-13T15:58:49.408Z,13.54
2023-02-13T16:01:19.089Z,13.51
2023-02-13T16:03:50.030Z,13.43
2023-02-13T16:06:20.916Z,13.41
2023-02-13T16:08:54.309Z,13.39
2023-02-13T16:11:28.128Z,13.31
2023-02-13T16:14:24.748Z,13.26
2023-02-13T16:16:57.639Z,13.18
2023-02-13T16:19:45.586Z,13.14
2023-02-13T16:22:26.656Z,13.11
2023-02-13T16:25:03.998Z,12.98
2023-02-13T16:27:32.237Z,12.85
2023-02-13T16:30:03.978Z,12.75
2023-02-13T16:32:38.109Z,12.63
2023-02-13T16:35:37.845Z,12.48
2023-02-13T16:38:05.720Z,12.37
2023-02-13T16:40:37.367Z,12.35
2023-02-13T16:43:39.502Z,12.22
2023-02-13T16:46:24.258Z,12.02
2023-02-13T16:49:20.460Z,11.89
2023-02-13T16:51:52.837Z,11.86
2023-02-13T16:54:33.021Z,11.74
2023-02-13T16:57:04.020Z,11.67
2023-02-13T16:59:37.386Z,11.58
2023-02-13T17:02:15.456Z,11.49
2023-02-13T17:04:47.624Z,11.47
2023-02-13T17:07:19.366Z,11.31
2023-02-13T17:09:53.778Z,11.20
2023-02-13T17:12:22.162Z,11.13
2023-02-13T17:14:50.014Z,11.03
2023-02-13T17:17:20.240Z,10.92
2023-02-13T17:19:50.391Z,10.80
2023-02-13T17:22:30.308Z,10.73
2023-02-13T17:24:58.793Z,10.55
2023-02-13T17:27:27.138Z,10.54
2023-02-13T17:29:55.031Z,10.41
2023-02-13T17:32:25.875Z,10.38
2023-02-13T17:34:55.658Z,10.24
2023-02-13T17:37:26.002Z,10.12
2023-02-13T17:39:54.865Z,10.12
2023-02-13T17:42:26.093Z,10.09
2023-02-13T17:44:54.942Z,10.06
2023-02-13T17:47:23.569Z,9.99
2023-02-13T17:49:55.223Z,9.92
2023-02-13T17:52:29.815Z,9.89
2023-02-13T17:54:57.818Z,9.87
2023-02-13T17:57:25.735Z,9.80
2023-02-13T17:59:53.678Z,9.65
2023-02-13T18:02:22.830Z,9.71
2023-02-13T18:04:51.555Z,9.60
2023-02-13T18:07:21.607Z,9.58
2023-02-13T18:09:51.112Z,9.52
2023-02-13T18:12:21.551Z,9.48
2023-02-13T18:14:50.062Z,9.45
2023-02-13T18:17:18.758Z,9.25
2023-02-13T18:19:47.390Z,9.31
2023-02-13T18:22:15.222Z,9.27
2023-02-13T18:24:44.393Z,9.06
2023-02-13T18:27:13.669Z,9.08
2023-02-13T18:29:41.988Z,9.02
2023-02-13T18:32:10.978Z,9.02
2023-02-13T18:34:39.967Z,8.96
2023-02-13T18:37:08.931Z,8.83
2023-02-13T18:39:36.860Z,8.81
2023-02-13T18:42:05.414Z,8.81
2023-02-13T18:44:34.980Z,8.74
2023-02-13T18:47:02.790Z,8.68
2023-02-13T18:49:30.714Z,8.58
2023-02-13T18:51:58.930Z,8.53
2023-02-13T18:54:27.031Z,8.49
2023-02-13T18:56:54.975Z,8.56
2023-02-13T18:59:23.212Z,8.54
2023-02-13T19:01:52.744Z,8.49
2023-02-13T19:04:20.784Z,8.51
2023-02-13T19:06:48.732Z,8.37
2023-02-13T19:09:16.573Z,8.30
2023-02-13T19:11:44.741Z,8.22
2023-02-13T19:14:14.461Z,8.29
2023-02-13T19:16:43.161Z,8.22
2023-02-13T19:19:12.452Z,8.10
2023-02-13T19:21:41.213Z,8.13
2023-02-13T19:24:10.402Z,8.03
2023-02-13T19:26:38.544Z,8.04
2023-02-13T19:29:06.455Z,8.04
2023-02-13T19:31:34.639Z,8.04
2023-02-13T19:34:02.733Z,8.01
2023-02-13T19:36:32.375Z,7.99
2023-02-13T19:39:02.740Z,7.96
2023-02-13T19:41:31.064Z,7.90
2023-02-13T19:44:00.444Z,7.84
2023-02-13T19:46:30.613Z,7.85
2023-02-13T19:48:59.327Z,7.83
2023-02-13T19:51:29.381Z,7.75
2023-02-13T19:54:00.486Z,7.70
2023-02-13T19:56:29.739Z,7.63
2023-02-13T19:58:58.251Z,7.69
2023-02-13T20:01:27.959Z,7.67
2023-02-13T20:03:56.651Z,7.65
2023-02-13T20:06:27.381Z,7.61
2023-02-13T20:08:55.371Z,7.54
2023-02-13T20:11:24.950Z,7.53
2023-02-13T20:13:55.525Z,7.44
2023-02-13T20:16:24.601Z,7.40
2023-02-13T20:18:52.713Z,7.36
2023-02-13T20:21:21.873Z,7.35
2023-02-13T20:23:51.774Z,7.33
2023-02-13T20:26:20.612Z,7.26
2023-02-13T20:28:50.294Z,7.29
2023-02-13T20:31:20.286Z,7.20
2023-02-13T20:33:48.756Z,7.18
2023-02-13T20:36:19.012Z,7.15
2023-02-13T20:38:47.631Z,7.12
2023-02-13T20:41:17.598Z,7.15
2023-02-13T20:43:46.159Z,7.13
2023-02-13T20:46:16.780Z,7.11
2023-02-13T20:48:47.033Z,7.04
2023-02-13T20:51:17.738Z,6.95
2023-02-13T20:53:46.872Z,6.94
2023-02-13T20:56:16.545Z,6.90
2023-02-13T20:58:45.906Z,6.89
2023-02-13T21:01:17.841Z,6.90
2023-02-13T21:03:53.375Z,6.77
2023-02-13T21:06:21.977Z,6.74
2023-02-13T21:08:50.343Z,6.74
2023-02-13T21:11:19.248Z,6.71
2023-02-13T21:13:47.274Z,6.65
2023-02-13T21:16:18.906Z,6.79
2023-02-13T21:18:49.258Z,6.70
2023-02-13T21:21:17.704Z,6.64
2023-02-13T21:23:45.789Z,6.52
2023-02-13T21:26:16.789Z,6.58
2023-02-13T21:28:47.008Z,6.55
2023-02-13T21:31:18.346Z,6.48
2023-02-13T21:33:46.416Z,6.38
2023-02-13T21:36:14.676Z,6.19
2023-02-13T21:38:43.154Z,6.28
2023-02-13T21:41:12.944Z,6.37
2023-02-13T21:43:42.254Z,6.32
2023-02-13T21:46:11.886Z,6.25
2023-02-13T21:48:42.486Z,6.16
2023-02-13T21:51:12.187Z,6.04
2023-02-13T21:53:40.673Z,6.08
2023-02-13T21:56:10.131Z,6.11
2023-02-13T21:58:39.678Z,6.05
2023-02-13T22:01:23.878Z,5.97
2023-02-13T22:03:54.837Z,6.03
2023-02-13T22:06:23.124Z,5.93
2023-02-13T22:08:56.380Z,5.83
2023-02-13T22:11:24.259Z,5.93
2023-02-13T22:13:55.701Z,5.85
2023-02-13T22:16:24.614Z,5.85
2023-02-13T22:18:53.976Z,5.81
2023-02-13T22:21:23.422Z,5.70
2023-02-13T22:23:52.268Z,5.69
2023-02-13T22:26:21.972Z,5.66
2023-02-13T22:28:50.931Z,5.67
2023-02-13T22:31:19.915Z,5.62
2023-02-13T22:33:55.335Z,5.64
2023-02-13T22:36:31.222Z,5.55
2023-02-13T22:38:59.328Z,5.67
2023-02-13T22:41:28.132Z,5.71
2023-02-13T22:43:56.041Z,5.80
2023-02-13T22:46:25.761Z,5.77
2023-02-13T22:48:54.219Z,5.76
2023-02-13T22:51:24.123Z,5.70
2023-02-13T22:53:55.805Z,5.74
2023-02-13T22:56:24.335Z,5.77
2023-02-13T22:58:52.352Z,5.67
2023-02-13T23:01:22.521Z,5.55
2023-02-13T23:03:50.754Z,5.51
2023-02-13T23:06:19.054Z,5.55
2023-02-13T23:08:49.072Z,5.56
2023-02-13T23:11:36.056Z,5.52
2023-02-13T23:14:04.224Z,5.66
2023-02-13T23:16:52.698Z,5.64
2023-02-13T23:19:19.741Z,5.50
2023-02-13T23:21:47.671Z,5.50
2023-02-13T23:24:15.612Z,5.55
2023-02-13T23:26:45.205Z,5.50
2023-02-13T23:29:13.437Z,5.45
2023-02-13T23:31:41.350Z,5.45
2023-02-13T23:34:09.293Z,5.45
2023-02-13T23:36:37.185Z,5.36
2023-02-13T23:39:05.282Z,5.33
2023-02-13T23:41:33.260Z,5.34
2023-02-13T23:44:02.679Z,5.13
2023-02-13T23:46:30.840Z,5.15
2023-02-13T23:48:58.955Z,5.23
2023-02-13T23:51:26.863Z,5.10
2023-02-13T23:53:57.285Z,5.03
2023-02-13T23:56:25.748Z,5.05
2023-02-13T23:58:53.723Z,5.12
